sensor_id;sensor_type;location;lat;lon;timestamp;P1;durP1;ratioP1;P2;durP2;ratioP2
23802;SDS011;12082;51.786;6.018;2024-03-23T00:55:27;18.57;;;5.73;;
23802;SDS011;12082;51.786;6.018;2024-03-23T00:57:53;18.10;;;5.03;;
23802;SDS011;12082;51.786;6.018;2024-03-23T01:00:19;23.43;;;5.43;;
23802;SDS011;12082;51.786;6.018;2024-03-23T01:02:45;30.57;;;6.23;;
23802;SDS011;12082;51.786;6.018;2024-03-23T01:05:11;17.80;;;5.87;;
23802;SDS011;12082;51.786;6.018;2024-03-23T01:07:37;12.97;;;5.83;;
23802;SDS011;12082;51.786;6.018;2024-03-23T01:10:03;17.27;;;5.97;;
23802;SDS011;12082;51.786;6.018;2024-03-23T01:12:29;23.10;;;6.40;;
23802;SDS011;12082;51.786;6.018;2024-03-23T01:14:55;18.97;;;6.47;;
23802;SDS011;12082;51.786;6.018;2024-03-23T01:17:21;19.00;;;6.43;;
23802;SDS011;12082;51.786;6.018;2024-03-23T01:19:47;17.53;;;5.73;;
23802;SDS011;12082;51.786;6.018;2024-03-23T01:22:13;23.03;;;7.50;;
23802;SDS011;12082;51.786;6.018;2024-03-23T01:24:39;28.57;;;7.00;;
23802;SDS011;12082;51.786;6.018;2024-03-23T01:27:05;24.43;;;6.77;;
23802;SDS011;12082;51.786;6.018;2024-03-23T01:29:31;27.73;;;7.27;;
23802;SDS011;12082;51.786;6.018;2024-03-23T01:31:57;24.47;;;7.73;;
23802;SDS011;12082;51.786;6.018;2024-03-23T01:34:23;23.83;;;6.47;;
23802;SDS011;12082;51.786;6.018;2024-03-23T01:36:50;25.67;;;8.10;;
23802;SDS011;12082;51.786;6.018;2024-03-23T01:39:16;27.17;;;6.60;;
23802;SDS011;12082;51.786;6.018;2024-03-23T01:41:42;28.47;;;7.80;;
23802;SDS011;12082;51.786;6.018;2024-03-23T01:44:08;25.90;;;7.57;;
23802;SDS011;12082;51.786;6.018;2024-03-23T01:46:37;20.43;;;6.97;;
23802;SDS011;12082;51.786;6.018;2024-03-23T01:49:06;31.00;;;8.03;;
23802;SDS011;12082;51.786;6.018;2024-03-23T01:51:33;29.03;;;8.50;;
23802;SDS011;12082;51.786;6.018;2024-03-23T01:53:59;26.43;;;8.00;;
23802;SDS011;12082;51.786;6.018;2024-03-23T01:56:27;15.60;;;6.70;;
23802;SDS011;12082;51.786;6.018;2024-03-23T01:58:54;23.77;;;6.27;;
23802;SDS011;12082;51.786;6.018;2024-03-23T02:01:20;25.83;;;6.40;;
23802;SDS011;12082;51.786;6.018;2024-03-23T02:03:46;14.07;;;6.27;;
23802;SDS011;12082;51.786;6.018;2024-03-23T02:06:12;17.57;;;5.87;;
23802;SDS011;12082;51.786;6.018;2024-03-23T02:08:38;17.63;;;7.03;;
23802;SDS011;12082;51.786;6.018;2024-03-23T02:11:04;14.63;;;6.57;;
23802;SDS011;12082;51.786;6.018;2024-03-23T02:13:30;15.40;;;5.70;;
23802;SDS011;12082;51.786;6.018;2024-03-23T02:15:57;19.23;;;6.10;;
23802;SDS011;12082;51.786;6.018;2024-03-23T02:18:23;19.07;;;6.47;;
23802;SDS011;12082;51.786;6.018;2024-03-23T02:20:49;23.40;;;6.63;;
23802;SDS011;12082;51.786;6.018;2024-03-23T02:23:15;35.60;;;7.23;;
23802;SDS011;12082;51.786;6.018;2024-03-23T02:25:42;19.23;;;6.80;;
23802;SDS011;12082;51.786;6.018;2024-03-23T02:28:09;26.30;;;7.10;;
23802;SDS011;12082;51.786;6.018;2024-03-23T02:30:35;23.80;;;7.60;;
23802;SDS011;12082;51.786;6.018;2024-03-23T02:33:01;28.20;;;7.00;;
23802;SDS011;12082;51.786;6.018;2024-03-23T02:35:27;20.87;;;7.77;;
23802;SDS011;12082;51.786;6.018;2024-03-23T02:37:53;26.07;;;8.23;;
23802;SDS011;12082;51.786;6.018;2024-03-23T02:40:21;25.33;;;7.03;;
23802;SDS011;12082;51.786;6.018;2024-03-23T02:42:47;17.03;;;6.70;;
23802;SDS011;12082;51.786;6.018;2024-03-23T02:45:13;27.17;;;7.77;;
23802;SDS011;12082;51.786;6.018;2024-03-23T02:47:39;16.20;;;7.43;;
23802;SDS011;12082;51.786;6.018;2024-03-23T02:50:05;27.80;;;7.20;;
23802;SDS011;12082;51.786;6.018;2024-03-23T02:52:31;21.33;;;7.93;;
23802;SDS011;12082;51.786;6.018;2024-03-23T02:54:57;27.60;;;8.13;;
23802;SDS011;12082;51.786;6.018;2024-03-23T02:57:23;27.57;;;7.70;;
23802;SDS011;12082;51.786;6.018;2024-03-23T02:59:49;21.77;;;8.17;;
23802;SDS011;12082;51.786;6.018;2024-03-23T03:02:15;23.00;;;8.90;;
23802;SDS011;12082;51.786;6.018;2024-03-23T03:04:41;17.07;;;8.57;;
23802;SDS011;12082;51.786;6.018;2024-03-23T03:07:07;24.40;;;8.93;;
23802;SDS011;12082;51.786;6.018;2024-03-23T03:09:33;25.40;;;7.77;;
23802;SDS011;12082;51.786;6.018;2024-03-23T03:12:00;26.47;;;8.23;;
23802;SDS011;12082;51.786;6.018;2024-03-23T03:14:27;21.33;;;8.07;;
23802;SDS011;12082;51.786;6.018;2024-03-23T03:16:53;20.83;;;9.23;;
23802;SDS011;12082;51.786;6.018;2024-03-23T03:19:19;27.77;;;8.20;;
23802;SDS011;12082;51.786;6.018;2024-03-23T03:21:45;27.30;;;8.13;;
23802;SDS011;12082;51.786;6.018;2024-03-23T03:24:12;22.00;;;8.90;;
23802;SDS011;12082;51.786;6.018;2024-03-23T03:26:38;33.23;;;9.47;;
23802;SDS011;12082;51.786;6.018;2024-03-23T03:29:04;26.63;;;9.03;;
23802;SDS011;12082;51.786;6.018;2024-03-23T03:31:32;26.37;;;9.23;;
23802;SDS011;12082;51.786;6.018;2024-03-23T03:33:58;31.30;;;10.10;;
23802;SDS011;12082;51.786;6.018;2024-03-23T03:36:24;30.03;;;9.73;;
23802;SDS011;12082;51.786;6.018;2024-03-23T03:38:50;22.67;;;9.50;;
23802;SDS011;12082;51.786;6.018;2024-03-23T03:41:16;33.50;;;9.80;;
23802;SDS011;12082;51.786;6.018;2024-03-23T03:43:42;27.87;;;9.77;;
23802;SDS011;12082;51.786;6.018;2024-03-23T03:46:08;31.30;;;10.27;;
23802;SDS011;12082;51.786;6.018;2024-03-23T03:48:34;32.00;;;10.83;;
23802;SDS011;12082;51.786;6.018;2024-03-23T03:51:00;28.50;;;10.23;;
23802;SDS011;12082;51.786;6.018;2024-03-23T03:53:26;27.93;;;10.53;;
23802;SDS011;12082;51.786;6.018;2024-03-23T03:55:52;28.57;;;10.30;;
23802;SDS011;12082;51.786;6.018;2024-03-23T03:58:18;32.20;;;10.13;;
23802;SDS011;12082;51.786;6.018;2024-03-23T04:00:44;40.53;;;10.30;;
23802;SDS011;12082;51.786;6.018;2024-03-23T04:03:10;34.23;;;10.20;;
23802;SDS011;12082;51.786;6.018;2024-03-23T04:05:36;30.00;;;10.97;;
23802;SDS011;12082;51.786;6.018;2024-03-23T04:08:03;28.13;;;10.03;;
23802;SDS011;12082;51.786;6.018;2024-03-23T04:10:29;28.50;;;11.17;;
23802;SDS011;12082;51.786;6.018;2024-03-23T04:12:55;27.13;;;10.07;;
23802;SDS011;12082;51.786;6.018;2024-03-23T04:15:21;29.57;;;10.03;;
23802;SDS011;12082;51.786;6.018;2024-03-23T04:17:47;33.07;;;10.90;;
23802;SDS011;12082;51.786;6.018;2024-03-23T04:20:13;32.47;;;10.60;;
23802;SDS011;12082;51.786;6.018;2024-03-23T04:22:42;42.17;;;11.20;;
23802;SDS011;12082;51.786;6.018;2024-03-23T04:25:08;29.33;;;11.27;;
23802;SDS011;12082;51.786;6.018;2024-03-23T04:27:35;45.93;;;11.63;;
23802;SDS011;12082;51.786;6.018;2024-03-23T04:30:01;35.27;;;11.13;;
23802;SDS011;12082;51.786;6.018;2024-03-23T04:32:29;35.83;;;11.87;;
23802;SDS011;12082;51.786;6.018;2024-03-23T04:34:56;31.63;;;11.03;;
23802;SDS011;12082;51.786;6.018;2024-03-23T04:37:22;40.63;;;11.27;;
23802;SDS011;12082;51.786;6.018;2024-03-23T04:39:48;31.13;;;11.37;;
23802;SDS011;12082;51.786;6.018;2024-03-23T04:42:15;29.90;;;11.17;;
23802;SDS011;12082;51.786;6.018;2024-03-23T04:44:44;32.63;;;11.47;;
23802;SDS011;12082;51.786;6.018;2024-03-23T04:47:10;30.50;;;12.37;;
23802;SDS011;12082;51.786;6.018;2024-03-23T04:49:36;34.67;;;11.30;;
23802;SDS011;12082;51.786;6.018;2024-03-23T04:52:03;36.00;;;12.30;;
23802;SDS011;12082;51.786;6.018;2024-03-23T04:54:29;32.53;;;11.83;;
23802;SDS011;12082;51.786;6.018;2024-03-23T04:56:57;35.07;;;12.07;;
23802;SDS011;12082;51.786;6.018;2024-03-23T04:59:23;38.30;;;12.67;;
23802;SDS011;12082;51.786;6.018;2024-03-23T05:01:49;44.00;;;13.03;;
23802;SDS011;12082;51.786;6.018;2024-03-23T05:04:15;39.60;;;13.30;;
23802;SDS011;12082;51.786;6.018;2024-03-23T05:06:41;46.33;;;13.47;;
23802;SDS011;12082;51.786;6.018;2024-03-23T05:09:07;39.60;;;13.00;;
23802;SDS011;12082;51.786;6.018;2024-03-23T05:11:36;48.57;;;13.87;;
23802;SDS011;12082;51.786;6.018;2024-03-23T05:14:02;43.37;;;13.80;;
23802;SDS011;12082;51.786;6.018;2024-03-23T05:16:28;46.63;;;12.97;;
23802;SDS011;12082;51.786;6.018;2024-03-23T05:18:54;37.90;;;13.43;;
23802;SDS011;12082;51.786;6.018;2024-03-23T05:21:20;32.67;;;12.80;;
23802;SDS011;12082;51.786;6.018;2024-03-23T05:23:46;45.37;;;12.90;;
23802;SDS011;12082;51.786;6.018;2024-03-23T05:26:13;37.47;;;12.53;;
23802;SDS011;12082;51.786;6.018;2024-03-23T05:28:39;53.50;;;13.33;;
23802;SDS011;12082;51.786;6.018;2024-03-23T05:31:05;38.90;;;13.63;;
23802;SDS011;12082;51.786;6.018;2024-03-23T05:33:31;41.03;;;12.47;;
23802;SDS011;12082;51.786;6.018;2024-03-23T05:35:57;40.67;;;11.70;;
23802;SDS011;12082;51.786;6.018;2024-03-23T05:38:24;36.23;;;11.00;;
23802;SDS011;12082;51.786;6.018;2024-03-23T05:40:56;28.10;;;10.07;;
23802;SDS011;12082;51.786;6.018;2024-03-23T05:43:22;34.87;;;10.37;;
23802;SDS011;12082;51.786;6.018;2024-03-23T05:48:20;38.23;;;10.20;;
23802;SDS011;12082;51.786;6.018;2024-03-23T05:50:47;27.40;;;9.87;;
23802;SDS011;12082;51.786;6.018;2024-03-23T05:53:13;28.33;;;9.70;;
23802;SDS011;12082;51.786;6.018;2024-03-23T05:55:39;37.27;;;9.50;;
23802;SDS011;12082;51.786;6.018;2024-03-23T05:58:05;26.63;;;10.33;;
23802;SDS011;12082;51.786;6.018;2024-03-23T06:00:31;29.93;;;9.47;;
23802;SDS011;12082;51.786;6.018;2024-03-23T06:02:57;26.53;;;9.27;;
23802;SDS011;12082;51.786;6.018;2024-03-23T06:05:23;30.50;;;8.93;;
23802;SDS011;12082;51.786;6.018;2024-03-23T06:07:49;30.40;;;9.43;;
23802;SDS011;12082;51.786;6.018;2024-03-23T06:10:15;28.40;;;7.87;;
23802;SDS011;12082;51.786;6.018;2024-03-23T06:12:41;30.50;;;8.13;;
23802;SDS011;12082;51.786;6.018;2024-03-23T06:15:07;30.77;;;8.67;;
23802;SDS011;12082;51.786;6.018;2024-03-23T06:17:38;30.03;;;9.40;;
23802;SDS011;12082;51.786;6.018;2024-03-23T06:20:04;21.90;;;8.50;;
23802;SDS011;12082;51.786;6.018;2024-03-23T06:22:33;20.17;;;7.13;;
23802;SDS011;12082;51.786;6.018;2024-03-23T06:24:59;24.97;;;8.63;;
23802;SDS011;12082;51.786;6.018;2024-03-23T06:27:25;27.20;;;7.80;;
23802;SDS011;12082;51.786;6.018;2024-03-23T06:29:51;22.73;;;7.07;;
23802;SDS011;12082;51.786;6.018;2024-03-23T06:32:17;25.03;;;7.00;;
23802;SDS011;12082;51.786;6.018;2024-03-23T06:34:43;26.93;;;7.70;;
23802;SDS011;12082;51.786;6.018;2024-03-23T06:37:11;24.40;;;6.27;;
23802;SDS011;12082;51.786;6.018;2024-03-23T06:39:37;17.00;;;5.67;;
23802;SDS011;12082;51.786;6.018;2024-03-23T06:42:03;17.23;;;6.90;;
23802;SDS011;12082;51.786;6.018;2024-03-23T06:44:29;21.20;;;6.97;;
23802;SDS011;12082;51.786;6.018;2024-03-23T06:46:56;20.30;;;6.43;;
23802;SDS011;12082;51.786;6.018;2024-03-23T06:49:22;15.17;;;5.83;;
23802;SDS011;12082;51.786;6.018;2024-03-23T06:51:48;14.87;;;6.27;;
23802;SDS011;12082;51.786;6.018;2024-03-23T06:54:14;13.13;;;5.30;;
23802;SDS011;12082;51.786;6.018;2024-03-23T06:56:40;19.17;;;5.83;;
23802;SDS011;12082;51.786;6.018;2024-03-23T06:59:06;17.30;;;5.87;;
23802;SDS011;12082;51.786;6.018;2024-03-23T07:01:32;15.73;;;5.13;;
23802;SDS011;12082;51.786;6.018;2024-03-23T07:03:59;10.13;;;4.10;;
23802;SDS011;12082;51.786;6.018;2024-03-23T07:06:25;15.10;;;4.47;;
23802;SDS011;12082;51.786;6.018;2024-03-23T07:08:52;9.97;;;4.17;;
23802;SDS011;12082;51.786;6.018;2024-03-23T07:11:21;9.53;;;3.87;;
23802;SDS011;12082;51.786;6.018;2024-03-23T07:13:49;12.70;;;4.80;;
23802;SDS011;12082;51.786;6.018;2024-03-23T07:16:15;10.87;;;4.53;;
23802;SDS011;12082;51.786;6.018;2024-03-23T07:18:41;13.67;;;4.07;;
23802;SDS011;12082;51.786;6.018;2024-03-23T07:21:07;9.73;;;4.47;;
23802;SDS011;12082;51.786;6.018;2024-03-23T07:23:33;11.83;;;3.53;;
23802;SDS011;12082;51.786;6.018;2024-03-23T07:26:00;8.47;;;3.90;;
23802;SDS011;12082;51.786;6.018;2024-03-23T07:28:26;12.97;;;3.93;;
23802;SDS011;12082;51.786;6.018;2024-03-23T07:31:03;13.40;;;4.20;;
23802;SDS011;12082;51.786;6.018;2024-03-23T07:33:30;12.67;;;3.87;;
23802;SDS011;12082;51.786;6.018;2024-03-23T07:35:56;10.20;;;3.80;;
23802;SDS011;12082;51.786;6.018;2024-03-23T07:38:22;13.07;;;3.10;;
23802;SDS011;12082;51.786;6.018;2024-03-23T07:40:48;11.57;;;3.10;;
23802;SDS011;12082;51.786;6.018;2024-03-23T07:43:19;9.77;;;3.47;;
23802;SDS011;12082;51.786;6.018;2024-03-23T07:45:50;7.20;;;2.90;;
23802;SDS011;12082;51.786;6.018;2024-03-23T07:48:17;8.27;;;3.20;;
23802;SDS011;12082;51.786;6.018;2024-03-23T07:50:43;13.73;;;3.93;;
23802;SDS011;12082;51.786;6.018;2024-03-23T07:53:09;15.13;;;3.70;;
23802;SDS011;12082;51.786;6.018;2024-03-23T07:55:35;9.63;;;3.40;;
23802;SDS011;12082;51.786;6.018;2024-03-23T07:58:01;14.40;;;3.67;;
23802;SDS011;12082;51.786;6.018;2024-03-23T08:00:27;13.10;;;2.83;;
23802;SDS011;12082;51.786;6.018;2024-03-23T08:02:53;9.20;;;3.10;;
23802;SDS011;12082;51.786;6.018;2024-03-23T08:05:19;8.27;;;3.33;;
23802;SDS011;12082;51.786;6.018;2024-03-23T08:07:46;9.37;;;2.90;;
23802;SDS011;12082;51.786;6.018;2024-03-23T08:10:12;10.47;;;3.00;;
23802;SDS011;12082;51.786;6.018;2024-03-23T08:12:38;15.17;;;3.47;;
23802;SDS011;12082;51.786;6.018;2024-03-23T08:15:04;8.17;;;3.10;;
23802;SDS011;12082;51.786;6.018;2024-03-23T08:17:30;13.70;;;3.20;;
23802;SDS011;12082;51.786;6.018;2024-03-23T08:19:56;10.30;;;3.83;;
23802;SDS011;12082;51.786;6.018;2024-03-23T08:22:22;10.70;;;3.50;;
23802;SDS011;12082;51.786;6.018;2024-03-23T08:24:48;17.40;;;3.40;;
23802;SDS011;12082;51.786;6.018;2024-03-23T08:27:14;9.00;;;2.90;;
23802;SDS011;12082;51.786;6.018;2024-03-23T08:29:40;6.43;;;2.97;;
23802;SDS011;12082;51.786;6.018;2024-03-23T08:32:06;7.20;;;2.90;;
23802;SDS011;12082;51.786;6.018;2024-03-23T08:34:32;10.97;;;3.20;;
23802;SDS011;12082;51.786;6.018;2024-03-23T08:36:58;10.57;;;3.50;;
23802;SDS011;12082;51.786;6.018;2024-03-23T08:39:24;10.17;;;4.10;;
23802;SDS011;12082;51.786;6.018;2024-03-23T08:41:50;13.33;;;3.13;;
23802;SDS011;12082;51.786;6.018;2024-03-23T08:44:16;12.17;;;4.03;;
23802;SDS011;12082;51.786;6.018;2024-03-23T08:46:42;10.33;;;3.43;;
23802;SDS011;12082;51.786;6.018;2024-03-23T08:49:08;9.87;;;3.60;;
23802;SDS011;12082;51.786;6.018;2024-03-23T08:51:34;7.70;;;2.90;;
23802;SDS011;12082;51.786;6.018;2024-03-23T08:54:00;15.47;;;3.30;;
23802;SDS011;12082;51.786;6.018;2024-03-23T08:56:26;6.13;;;3.43;;
23802;SDS011;12082;51.786;6.018;2024-03-23T08:58:52;7.37;;;2.83;;
23802;SDS011;12082;51.786;6.018;2024-03-23T09:01:18;14.63;;;3.63;;
23802;SDS011;12082;51.786;6.018;2024-03-23T09:03:44;17.27;;;3.17;;
23802;SDS011;12082;51.786;6.018;2024-03-23T09:06:11;8.17;;;3.33;;
23802;SDS011;12082;51.786;6.018;2024-03-23T09:08:37;8.33;;;2.37;;
23802;SDS011;12082;51.786;6.018;2024-03-23T09:11:06;7.97;;;3.23;;
23802;SDS011;12082;51.786;6.018;2024-03-23T09:13:35;9.03;;;2.77;;
23802;SDS011;12082;51.786;6.018;2024-03-23T09:16:01;7.70;;;3.37;;
23802;SDS011;12082;51.786;6.018;2024-03-23T09:18:28;10.13;;;2.30;;
23802;SDS011;12082;51.786;6.018;2024-03-23T09:20:54;9.17;;;2.40;;
23802;SDS011;12082;51.786;6.018;2024-03-23T09:23:20;9.77;;;2.47;;
23802;SDS011;12082;51.786;6.018;2024-03-23T09:25:46;9.17;;;2.43;;
23802;SDS011;12082;51.786;6.018;2024-03-23T09:28:12;4.60;;;2.30;;
23802;SDS011;12082;51.786;6.018;2024-03-23T09:30:38;7.40;;;2.70;;
23802;SDS011;12082;51.786;6.018;2024-03-23T09:33:07;8.23;;;2.40;;
23802;SDS011;12082;51.786;6.018;2024-03-23T09:35:36;6.93;;;2.53;;
23802;SDS011;12082;51.786;6.018;2024-03-23T09:38:02;11.27;;;2.90;;
23802;SDS011;12082;51.786;6.018;2024-03-23T09:40:28;6.17;;;2.07;;
23802;SDS011;12082;51.786;6.018;2024-03-23T09:42:54;9.00;;;2.53;;
23802;SDS011;12082;51.786;6.018;2024-03-23T09:45:27;6.07;;;1.97;;
23802;SDS011;12082;51.786;6.018;2024-03-23T09:47:54;6.37;;;1.80;;
23802;SDS011;12082;51.786;6.018;2024-03-23T09:50:21;8.83;;;2.47;;
23802;SDS011;12082;51.786;6.018;2024-03-23T09:52:47;10.80;;;3.23;;
23802;SDS011;12082;51.786;6.018;2024-03-23T09:55:13;8.27;;;2.73;;
23802;SDS011;12082;51.786;6.018;2024-03-23T09:57:39;7.20;;;2.90;;
23802;SDS011;12082;51.786;6.018;2024-03-23T10:00:05;9.03;;;2.73;;
23802;SDS011;12082;51.786;6.018;2024-03-23T10:02:32;6.63;;;3.20;;
23802;SDS011;12082;51.786;6.018;2024-03-23T10:04:59;10.70;;;3.27;;
23802;SDS011;12082;51.786;6.018;2024-03-23T10:07:25;5.63;;;2.20;;
23802;SDS011;12082;51.786;6.018;2024-03-23T10:09:53;2.50;;;2.17;;
23802;SDS011;12082;51.786;6.018;2024-03-23T10:12:20;6.23;;;1.90;;
23802;SDS011;12082;51.786;6.018;2024-03-23T10:14:46;4.90;;;2.03;;
23802;SDS011;12082;51.786;6.018;2024-03-23T10:17:19;4.87;;;2.30;;
23802;SDS011;12082;51.786;6.018;2024-03-23T10:19:45;6.57;;;2.60;;
23802;SDS011;12082;51.786;6.018;2024-03-23T10:22:14;4.07;;;2.47;;
23802;SDS011;12082;51.786;6.018;2024-03-23T10:24:40;6.70;;;2.60;;
23802;SDS011;12082;51.786;6.018;2024-03-23T10:27:06;3.13;;;2.77;;
23802;SDS011;12082;51.786;6.018;2024-03-23T10:29:32;18.83;;;3.77;;
23802;SDS011;12082;51.786;6.018;2024-03-23T10:32:08;14.87;;;4.13;;
23802;SDS011;12082;51.786;6.018;2024-03-23T10:34:34;13.23;;;4.13;;
23802;SDS011;12082;51.786;6.018;2024-03-23T10:37:01;9.97;;;3.80;;
23802;SDS011;12082;51.786;6.018;2024-03-23T10:39:29;11.17;;;4.13;;
23802;SDS011;12082;51.786;6.018;2024-03-23T10:41:56;9.77;;;3.40;;
23802;SDS011;12082;51.786;6.018;2024-03-23T10:44:22;10.60;;;3.40;;
23802;SDS011;12082;51.786;6.018;2024-03-23T10:46:51;9.10;;;2.60;;
23802;SDS011;12082;51.786;6.018;2024-03-23T10:49:23;13.97;;;3.03;;
23802;SDS011;12082;51.786;6.018;2024-03-23T10:51:50;10.90;;;2.73;;
23802;SDS011;12082;51.786;6.018;2024-03-23T10:54:16;7.10;;;2.57;;
23802;SDS011;12082;51.786;6.018;2024-03-23T10:56:44;4.57;;;2.37;;
23802;SDS011;12082;51.786;6.018;2024-03-23T10:59:10;8.17;;;2.40;;
23802;SDS011;12082;51.786;6.018;2024-03-23T11:01:46;4.67;;;1.80;;
23802;SDS011;12082;51.786;6.018;2024-03-23T11:04:37;7.20;;;2.50;;
23802;SDS011;12082;51.786;6.018;2024-03-23T11:09:52;4.87;;;1.83;;
23802;SDS011;12082;51.786;6.018;2024-03-23T11:14:57;9.20;;;1.87;;
23802;SDS011;12082;51.786;6.018;2024-03-23T11:17:24;7.93;;;2.33;;
23802;SDS011;12082;51.786;6.018;2024-03-23T11:19:54;6.50;;;1.93;;
23802;SDS011;12082;51.786;6.018;2024-03-23T11:27:47;7.73;;;2.07;;
23802;SDS011;12082;51.786;6.018;2024-03-23T11:32:40;5.83;;;2.20;;
23802;SDS011;12082;51.786;6.018;2024-03-23T11:35:06;9.83;;;2.53;;
23802;SDS011;12082;51.786;6.018;2024-03-23T11:37:34;9.07;;;2.23;;
23802;SDS011;12082;51.786;6.018;2024-03-23T11:40:00;6.90;;;2.30;;
23802;SDS011;12082;51.786;6.018;2024-03-23T11:42:27;7.10;;;2.10;;
23802;SDS011;12082;51.786;6.018;2024-03-23T11:44:53;6.87;;;2.07;;
23802;SDS011;12082;51.786;6.018;2024-03-23T11:47:19;3.43;;;1.83;;
23802;SDS011;12082;51.786;6.018;2024-03-23T11:49:45;3.83;;;1.70;;
23802;SDS011;12082;51.786;6.018;2024-03-23T11:52:14;6.47;;;2.27;;
23802;SDS011;12082;51.786;6.018;2024-03-23T11:54:41;7.10;;;2.00;;
23802;SDS011;12082;51.786;6.018;2024-03-23T11:57:08;6.60;;;2.37;;
23802;SDS011;12082;51.786;6.018;2024-03-23T12:02:05;7.47;;;2.23;;
23802;SDS011;12082;51.786;6.018;2024-03-23T12:04:31;10.80;;;2.60;;
23802;SDS011;12082;51.786;6.018;2024-03-23T12:07:13;7.17;;;2.50;;
23802;SDS011;12082;51.786;6.018;2024-03-23T12:09:39;10.60;;;2.23;;
23802;SDS011;12082;51.786;6.018;2024-03-23T12:12:10;5.00;;;1.90;;
23802;SDS011;12082;51.786;6.018;2024-03-23T12:14:36;6.77;;;2.30;;
23802;SDS011;12082;51.786;6.018;2024-03-23T12:17:11;3.33;;;1.17;;
23802;SDS011;12082;51.786;6.018;2024-03-23T12:19:38;2.47;;;1.40;;
23802;SDS011;12082;51.786;6.018;2024-03-23T12:22:05;1.80;;;1.23;;
23802;SDS011;12082;51.786;6.018;2024-03-23T12:24:32;3.73;;;1.10;;
23802;SDS011;12082;51.786;6.018;2024-03-23T12:27:01;7.47;;;1.83;;
23802;SDS011;12082;51.786;6.018;2024-03-23T12:29:28;3.43;;;1.60;;
23802;SDS011;12082;51.786;6.018;2024-03-23T12:31:56;3.60;;;1.37;;
23802;SDS011;12082;51.786;6.018;2024-03-23T12:34:22;6.10;;;2.10;;
23802;SDS011;12082;51.786;6.018;2024-03-23T12:36:48;5.07;;;1.50;;
23802;SDS011;12082;51.786;6.018;2024-03-23T12:39:14;6.53;;;1.60;;
23802;SDS011;12082;51.786;6.018;2024-03-23T12:41:40;6.53;;;1.67;;
23802;SDS011;12082;51.786;6.018;2024-03-23T12:44:06;7.70;;;2.67;;
23802;SDS011;12082;51.786;6.018;2024-03-23T12:46:34;4.80;;;1.77;;
23802;SDS011;12082;51.786;6.018;2024-03-23T12:49:00;8.23;;;2.47;;
23802;SDS011;12082;51.786;6.018;2024-03-23T12:51:26;7.80;;;2.43;;
23802;SDS011;12082;51.786;6.018;2024-03-23T12:53:52;6.50;;;1.90;;
23802;SDS011;12082;51.786;6.018;2024-03-23T12:56:18;8.47;;;2.00;;
23802;SDS011;12082;51.786;6.018;2024-03-23T12:58:44;8.70;;;2.03;;
23802;SDS011;12082;51.786;6.018;2024-03-23T13:01:10;7.47;;;2.13;;
23802;SDS011;12082;51.786;6.018;2024-03-23T13:03:36;7.37;;;2.10;;
23802;SDS011;12082;51.786;6.018;2024-03-23T13:06:02;3.43;;;1.53;;
23802;SDS011;12082;51.786;6.018;2024-03-23T13:08:32;5.77;;;2.10;;
23802;SDS011;12082;51.786;6.018;2024-03-23T13:10:58;3.83;;;1.97;;
23802;SDS011;12082;51.786;6.018;2024-03-23T13:13:24;8.90;;;2.30;;
23802;SDS011;12082;51.786;6.018;2024-03-23T13:15:50;5.87;;;1.73;;
23802;SDS011;12082;51.786;6.018;2024-03-23T13:18:16;6.37;;;2.00;;
23802;SDS011;12082;51.786;6.018;2024-03-23T13:20:42;9.03;;;2.30;;
23802;SDS011;12082;51.786;6.018;2024-03-23T13:23:08;10.03;;;4.03;;
23802;SDS011;12082;51.786;6.018;2024-03-23T13:25:34;6.20;;;2.30;;
23802;SDS011;12082;51.786;6.018;2024-03-23T13:28:02;10.73;;;2.40;;
23802;SDS011;12082;51.786;6.018;2024-03-23T13:30:28;7.30;;;2.10;;
23802;SDS011;12082;51.786;6.018;2024-03-23T13:32:54;5.17;;;1.90;;
23802;SDS011;12082;51.786;6.018;2024-03-23T13:35:21;3.43;;;1.83;;
23802;SDS011;12082;51.786;6.018;2024-03-23T13:37:47;8.83;;;2.20;;
23802;SDS011;12082;51.786;6.018;2024-03-23T13:40:13;6.77;;;2.03;;
23802;SDS011;12082;51.786;6.018;2024-03-23T13:42:39;8.10;;;2.77;;
23802;SDS011;12082;51.786;6.018;2024-03-23T13:45:05;7.73;;;2.50;;
23802;SDS011;12082;51.786;6.018;2024-03-23T13:47:32;7.93;;;2.57;;
23802;SDS011;12082;51.786;6.018;2024-03-23T13:49:58;7.60;;;2.93;;
23802;SDS011;12082;51.786;6.018;2024-03-23T13:52:24;9.17;;;2.37;;
23802;SDS011;12082;51.786;6.018;2024-03-23T13:54:51;5.87;;;2.20;;
23802;SDS011;12082;51.786;6.018;2024-03-23T13:57:17;10.30;;;2.03;;
23802;SDS011;12082;51.786;6.018;2024-03-23T13:59:46;7.40;;;2.03;;
23802;SDS011;12082;51.786;6.018;2024-03-23T14:02:13;10.20;;;2.30;;
23802;SDS011;12082;51.786;6.018;2024-03-23T14:04:40;5.63;;;1.97;;
23802;SDS011;12082;51.786;6.018;2024-03-23T14:07:05;5.77;;;2.20;;
23802;SDS011;12082;51.786;6.018;2024-03-23T14:09:34;4.57;;;1.93;;
23802;SDS011;12082;51.786;6.018;2024-03-23T14:11:59;8.40;;;2.17;;
23802;SDS011;12082;51.786;6.018;2024-03-23T14:14:25;8.27;;;2.20;;
23802;SDS011;12082;51.786;6.018;2024-03-23T14:16:51;2.77;;;1.53;;
23802;SDS011;12082;51.786;6.018;2024-03-23T14:19:18;5.43;;;1.80;;
23802;SDS011;12082;51.786;6.018;2024-03-23T14:21:44;5.37;;;1.90;;
23802;SDS011;12082;51.786;6.018;2024-03-23T14:24:11;5.47;;;1.67;;
23802;SDS011;12082;51.786;6.018;2024-03-23T14:26:37;3.97;;;1.60;;
23802;SDS011;12082;51.786;6.018;2024-03-23T14:29:03;4.87;;;1.60;;
23802;SDS011;12082;51.786;6.018;2024-03-23T14:31:29;12.07;;;2.57;;
23802;SDS011;12082;51.786;6.018;2024-03-23T14:33:55;5.33;;;1.50;;
23802;SDS011;12082;51.786;6.018;2024-03-23T14:36:21;6.67;;;1.80;;
23802;SDS011;12082;51.786;6.018;2024-03-23T14:38:48;3.70;;;1.47;;
23802;SDS011;12082;51.786;6.018;2024-03-23T14:41:14;7.50;;;1.63;;
23802;SDS011;12082;51.786;6.018;2024-03-23T14:43:40;5.03;;;2.23;;
23802;SDS011;12082;51.786;6.018;2024-03-23T14:46:15;10.73;;;1.90;;
23802;SDS011;12082;51.786;6.018;2024-03-23T14:48:42;8.20;;;2.10;;
23802;SDS011;12082;51.786;6.018;2024-03-23T14:51:09;9.60;;;1.87;;
23802;SDS011;12082;51.786;6.018;2024-03-23T14:53:36;7.67;;;2.17;;
23802;SDS011;12082;51.786;6.018;2024-03-23T14:56:03;6.37;;;2.10;;
23802;SDS011;12082;51.786;6.018;2024-03-23T14:58:29;7.70;;;2.07;;
23802;SDS011;12082;51.786;6.018;2024-03-23T15:03:27;9.73;;;2.57;;
23802;SDS011;12082;51.786;6.018;2024-03-23T15:05:54;8.50;;;2.00;;
23802;SDS011;12082;51.786;6.018;2024-03-23T15:08:21;7.37;;;1.83;;
23802;SDS011;12082;51.786;6.018;2024-03-23T15:10:47;6.77;;;1.87;;
23802;SDS011;12082;51.786;6.018;2024-03-23T15:13:13;2.57;;;1.47;;
23802;SDS011;12082;51.786;6.018;2024-03-23T15:15:42;11.33;;;2.30;;
23802;SDS011;12082;51.786;6.018;2024-03-23T15:18:13;8.00;;;2.33;;
23802;SDS011;12082;51.786;6.018;2024-03-23T15:20:40;8.73;;;2.37;;
23802;SDS011;12082;51.786;6.018;2024-03-23T15:23:06;5.87;;;2.00;;
23802;SDS011;12082;51.786;6.018;2024-03-23T15:25:32;7.97;;;2.27;;
23802;SDS011;12082;51.786;6.018;2024-03-23T15:27:58;10.30;;;2.93;;
23802;SDS011;12082;51.786;6.018;2024-03-23T15:30:25;5.83;;;2.83;;
23802;SDS011;12082;51.786;6.018;2024-03-23T15:32:51;6.80;;;2.30;;
23802;SDS011;12082;51.786;6.018;2024-03-23T15:35:17;6.70;;;2.17;;
23802;SDS011;12082;51.786;6.018;2024-03-23T15:37:48;8.50;;;2.63;;
23802;SDS011;12082;51.786;6.018;2024-03-23T15:40:14;8.47;;;2.80;;
23802;SDS011;12082;51.786;6.018;2024-03-23T15:42:40;8.77;;;2.87;;
23802;SDS011;12082;51.786;6.018;2024-03-23T15:45:06;4.63;;;2.10;;
23802;SDS011;12082;51.786;6.018;2024-03-23T15:47:33;13.37;;;2.30;;
23802;SDS011;12082;51.786;6.018;2024-03-23T15:49:59;6.13;;;1.93;;